Airfield :
LOGIN :

Register | Disclaimer

   EN    FR    IT 

 










Legend :    VFR   Marginal VFR   IFR   Intensive IFR   Very Intensive IFR
Visi :
Ceiling :
>= 8 km
>= 3000ft
5 to 8 km
1000 to 3000 ft
1500m to 5 km
500 to 1000 ft
800 to 1500m
200 to 500 ft
< 800m
< 200 ft
Symbols :   Thunderstorms  Fog  Heavy snow  Heavy precipitations  Wind > 20 kt
SIGMETs :     Misc.  Thunderstorms  Icing  Turbulence  Mountain Waves  Volcanic Ashes







- Airport Elevation : 302 ft
- IATA code : CGN


EDDK - Cologne Bonn

CURRENT METAR :
  • 290450Z VRB02KT 9999 MIFG SCT048 02/02 Q1018 NOSIG

EXPIRED METARs :
  • 290420Z VRB01KT 9999 BCFG MIFG SCT048 02/02 Q1018 NOSIG
  • 290356Z VRB01KT 9999 BCFG MIFG SCT048 02/01 Q1018 NOSIG
  • 290350Z VRB01KT 9999 BCFG MIFG SCT048 02/01 Q1018 NOSIG
  • 290328Z VRB01KT 9999 BCFG MIFG FEW017 SCT050 03/02 Q1018 NOSIG
  • 290325Z VRB01KT 9999 BCFG MIFG FEW017 SCT050 02/02 Q1018 NOSIG
  • 290320Z VRB01KT 9999 R24/0550VP2000U BCFG MIFG FEW017 SCT050 03/02 Q1018 NOSIG
  • 290307Z VRB02KT 9999 R24/0650V0800N BCFG MIFG NSC 02/02 Q1018 NOSIG
  • 290250Z VRB01KT 9999 BCFG MIFG NSC 03/02 Q1018 NOSIG
  • 290220Z VRB02KT 9999 MIFG NSC 03/02 Q1017 NOSIG

TAF TAF EDDK
Valid from the 29 at 00:00 until the 30 at 06:00 UTC


282300Z 2900/3006 VRB02KT 9999 SCT040
BECMG 2910/2913 33005KT
BECMG 2916/2919 05004KT
BECMG 2923/3002 11006KT
No reported NOTAMs for that airfield.



MET'MAP, your aeronautical weather chart ! - Copyright ORBIFLY December 2007 - Disclaimer

ORBIFLY MET'MAP TEAM :

Programming & Development : Alexandra Zaïnal
Concept & Development : Baudouin d'Aumeries
Co-Development & Prog : Marc-Olivier Méhu
Technical & hardware support : Manuel Goepfert

Contact : metmap@orbifly.com




SOURCES & CREDITS :

   NOAA